Time;durP1;ratioP1;P1;durP2;ratioP2;P2;SDS_P1;SDS_P2;PMS_P1;PMS_P2;Temp;Humidity;BMP_temperature;BMP_pressure;BME280_temperature;BME280_humidity;BME280_pressure;Samples;Min_cycle;Max_cycle;Signal;HPM_P1;HPM_P2
2021/11/28 00:01:39;;;;;;;31.73;19.37;;;2.20;99.90;;;;;;5031267;28;20207;-65
2021/11/28 00:04:06;;;;;;;32.53;18.17;;;2.20;99.90;;;;;;5029670;28;20214;-65
2021/11/28 00:06:35;;;;;;;32.47;18.43;;;2.20;99.90;;;;;;5023951;28;20573;-65
2021/11/28 00:11:48;;;;;;;31.00;18.77;;;2.20;99.90;;;;;;5018948;28;20231;-64
2021/11/28 00:14:15;;;;;;;32.60;18.50;;;2.20;99.90;;;;;;5019362;28;20269;-65
2021/11/28 00:16:43;;;;;;;31.40;19.43;;;2.20;99.90;;;;;;5033505;28;20211;-64
2021/11/28 00:19:10;;;;;;;34.97;18.87;;;2.20;99.90;;;;;;5029468;28;20211;-64
2021/11/28 00:21:37;;;;;;;33.90;19.63;;;2.20;99.90;;;;;;5013984;28;20290;-64
2021/11/28 00:24:05;;;;;;;33.80;18.97;;;2.20;99.90;;;;;;5015195;28;20290;-64
2021/11/28 00:26:32;;;;;;;33.57;19.17;;;2.20;99.90;;;;;;5023392;28;20644;-64
2021/11/28 00:29:01;;;;;;;36.30;20.13;;;2.20;99.90;;;;;;5030903;28;20736;-64
2021/11/28 00:31:28;;;;;;;36.77;20.50;;;2.20;99.90;;;;;;5021647;28;20222;-63
2021/11/28 00:33:55;;;;;;;34.73;20.73;;;2.20;99.90;;;;;;5028145;28;20317;-64
2021/11/28 00:36:22;;;;;;;36.83;21.50;;;2.20;99.90;;;;;;5018333;28;20249;-64
2021/11/28 00:38:49;;;;;;;36.87;20.87;;;2.20;99.90;;;;;;5025344;28;20293;-65
2021/11/28 00:41:16;;;;;;;37.57;20.83;;;2.30;99.90;;;;;;5017466;28;20293;-64
2021/11/28 00:43:43;;;;;;;36.77;21.13;;;2.30;99.90;;;;;;5020955;28;20246;-63
2021/11/28 00:46:11;;;;;;;36.40;22.00;;;2.40;99.90;;;;;;5021177;28;20203;-65
2021/11/28 00:48:42;;;;;;;38.37;21.90;;;2.40;99.90;;;;;;5023117;28;20298;-64
2021/11/28 00:51:32;;;;;;;36.70;21.43;;;2.40;99.90;;;;;;5024723;28;20234;-64
2021/11/28 00:53:59;;;;;;;35.47;19.70;;;2.50;99.90;;;;;;5013649;28;20215;-66
2021/11/28 00:56:26;;;;;;;36.27;20.93;;;2.50;99.90;;;;;;5021625;28;20258;-64
2021/11/28 00:58:53;;;;;;;32.97;21.37;;;2.60;99.90;;;;;;5014506;28;20297;-66
2021/11/28 01:01:21;;;;;;;36.10;20.93;;;2.60;99.90;;;;;;5020702;28;20207;-64
2021/11/28 01:03:49;;;;;;;39.60;22.90;;;2.70;99.90;;;;;;5027860;28;20606;-63
2021/11/28 01:06:16;;;;;;;39.63;22.27;;;2.70;99.90;;;;;;5018731;28;20676;-65
2021/11/28 01:08:43;;;;;;;40.23;22.43;;;2.70;99.90;;;;;;5026859;28;20750;-63
2021/11/28 01:11:10;;;;;;;35.17;22.13;;;2.80;99.90;;;;;;5022118;28;20762;-63
2021/11/28 01:13:37;;;;;;;35.23;22.00;;;2.80;99.90;;;;;;5017303;28;20330;-65
2021/11/28 01:16:04;;;;;;;39.57;22.50;;;2.80;99.90;;;;;;5016345;28;20286;-63
2021/11/28 01:18:33;;;;;;;37.50;21.90;;;2.80;99.90;;;;;;5012583;28;20640;-63
2021/11/28 01:21:00;;;;;;;35.53;20.90;;;2.90;99.90;;;;;;5012742;28;20207;-65
2021/11/28 01:23:27;;;;;;;35.60;21.37;;;2.90;99.90;;;;;;5013603;28;20782;-64
2021/11/28 01:25:54;;;;;;;35.40;21.10;;;2.90;99.90;;;;;;5019080;28;20641;-64
2021/11/28 01:28:21;;;;;;;35.50;20.17;;;2.90;99.90;;;;;;5021589;28;20256;-65
2021/11/28 01:30:48;;;;;;;38.17;22.40;;;3.00;99.90;;;;;;5026575;28;20227;-64
2021/11/28 01:33:15;;;;;;;38.77;22.10;;;3.00;99.90;;;;;;5019586;28;20700;-64
2021/11/28 01:35:44;;;;;;;32.80;20.97;;;3.10;99.90;;;;;;5018195;28;20252;-63
2021/11/28 01:38:11;;;;;;;36.93;20.77;;;3.10;99.90;;;;;;5011937;28;20290;-62
2021/11/28 01:40:38;;;;;;;33.57;19.90;;;3.10;99.90;;;;;;5012260;28;20558;-64
2021/11/28 01:43:07;;;;;;;32.93;20.37;;;3.20;99.90;;;;;;5021074;28;20252;-64
2021/11/28 01:45:36;;;;;;;35.73;20.90;;;3.20;99.90;;;;;;5024376;28;20301;-64
2021/11/28 01:48:06;;;;;;;35.83;20.50;;;3.30;99.90;;;;;;5023718;28;20223;-63
2021/11/28 01:50:35;;;;;;;32.37;20.90;;;3.30;99.90;;;;;;5019633;28;20773;-65
2021/11/28 01:53:08;;;;;;;33.73;20.13;;;3.40;99.90;;;;;;5018567;28;20318;-64
2021/11/28 01:55:36;;;;;;;34.63;19.83;;;3.40;99.90;;;;;;5025859;28;20230;-64
2021/11/28 01:58:05;;;;;;;33.27;19.87;;;3.40;99.90;;;;;;5018379;28;20700;-65
2021/11/28 02:00:34;;;;;;;37.10;21.30;;;3.50;99.90;;;;;;5011542;28;20279;-64
2021/11/28 02:03:02;;;;;;;33.73;18.80;;;3.50;99.90;;;;;;5023454;28;20264;-64
2021/11/28 02:05:30;;;;;;;36.10;19.43;;;3.50;99.90;;;;;;5013450;28;20656;-64
2021/11/28 02:07:57;;;;;;;32.73;19.83;;;3.50;99.90;;;;;;5011790;28;20215;-63
2021/11/28 02:10:27;;;;;;;31.80;19.80;;;3.50;99.90;;;;;;5028205;28;20222;-65
2021/11/28 02:12:55;;;;;;;33.83;20.23;;;3.50;99.90;;;;;;5021072;28;20246;-65
2021/11/28 02:15:23;;;;;;;32.60;19.87;;;3.60;99.90;;;;;;5015611;28;20746;-64
2021/11/28 02:17:52;;;;;;;34.03;19.30;;;3.60;99.90;;;;;;5024230;28;20707;-63
2021/11/28 02:20:22;;;;;;;35.43;20.40;;;3.60;99.90;;;;;;5024956;28;20238;-64
2021/11/28 02:22:50;;;;;;;33.67;19.80;;;3.60;99.90;;;;;;5030713;28;20206;-64
2021/11/28 02:25:18;;;;;;;31.87;18.83;;;3.60;99.90;;;;;;5012033;28;20211;-63
2021/11/28 02:27:45;;;;;;;31.63;18.70;;;3.60;99.90;;;;;;5010964;28;20214;-65
2021/11/28 02:30:17;;;;;;;32.33;19.03;;;3.60;99.90;;;;;;5022956;28;20210;-64
2021/11/28 02:32:44;;;;;;;30.30;18.73;;;3.60;99.90;;;;;;5022556;28;20234;-65
2021/11/28 02:35:14;;;;;;;35.80;20.87;;;3.60;99.90;;;;;;5028839;28;20238;-65
2021/11/28 02:37:41;;;;;;;31.17;18.83;;;3.60;99.90;;;;;;5025907;28;20294;-64
2021/11/28 02:40:12;;;;;;;33.57;20.37;;;3.60;99.90;;;;;;5011628;28;20299;-65
2021/11/28 02:42:39;;;;;;;32.47;19.57;;;3.70;99.90;;;;;;5013470;28;20968;-63
2021/11/28 02:45:08;;;;;;;37.23;19.70;;;3.60;99.90;;;;;;5029101;28;20257;-64
2021/11/28 02:47:35;;;;;;;33.30;20.60;;;3.70;99.90;;;;;;5016409;28;20522;-63
2021/11/28 02:50:02;;;;;;;29.07;18.70;;;3.70;99.90;;;;;;5030578;28;20297;-63
2021/11/28 02:52:29;;;;;;;30.27;18.07;;;3.70;99.90;;;;;;5027882;28;20313;-64
2021/11/28 02:54:56;;;;;;;31.40;18.93;;;3.80;99.90;;;;;;5013309;28;20215;-64
2021/11/28 02:57:25;;;;;;;32.63;19.03;;;3.70;99.90;;;;;;5010776;28;20313;-64
2021/11/28 02:59:52;;;;;;;29.83;19.47;;;3.80;99.90;;;;;;5010493;28;20286;-63
2021/11/28 03:02:19;;;;;;;32.43;19.10;;;3.80;99.90;;;;;;5015208;28;20282;-64
2021/11/28 03:04:46;;;;;;;35.27;20.33;;;3.90;99.90;;;;;;5014519;28;20208;-64
2021/11/28 03:07:15;;;;;;;31.90;19.17;;;3.80;99.90;;;;;;5025833;28;20676;-63
2021/11/28 03:09:42;;;;;;;33.57;18.40;;;3.80;99.90;;;;;;5028860;28;20297;-64
2021/11/28 03:12:10;;;;;;;30.60;18.77;;;3.80;99.90;;;;;;5026560;28;20229;-64
2021/11/28 03:14:39;;;;;;;35.47;19.90;;;3.80;99.90;;;;;;5009828;28;20239;-64
2021/11/28 03:17:06;;;;;;;28.77;17.90;;;3.90;99.90;;;;;;5024636;28;20215;-64
2021/11/28 03:19:33;;;;;;;32.60;19.03;;;3.80;99.90;;;;;;5017393;28;20293;-64
2021/11/28 03:22:00;;;;;;;36.13;19.43;;;3.80;99.90;;;;;;5029866;28;20634;-63
2021/11/28 03:24:28;;;;;;;31.90;19.47;;;3.80;99.90;;;;;;5009890;28;20294;-63
2021/11/28 03:26:54;;;;;;;34.13;20.57;;;3.80;99.90;;;;;;5025125;28;20699;-64
2021/11/28 03:29:24;;;;;;;33.70;20.67;;;3.80;99.90;;;;;;5023826;28;20243;-64
2021/11/28 03:31:54;;;;;;;32.40;19.53;;;3.80;99.90;;;;;;5018880;28;20773;-65
2021/11/28 03:34:21;;;;;;;35.70;21.30;;;3.80;99.90;;;;;;5021868;28;20286;-67
2021/11/28 03:36:50;;;;;;;34.37;20.80;;;3.80;99.90;;;;;;5014778;28;20265;-64
2021/11/28 03:39:20;;;;;;;36.43;21.53;;;3.80;99.90;;;;;;5028247;28;20222;-63
2021/11/28 03:41:51;;;;;;;33.50;20.83;;;3.80;99.90;;;;;;5022893;28;20289;-64
2021/11/28 03:44:19;;;;;;;36.00;21.10;;;3.80;99.90;;;;;;5028725;28;20290;-64
2021/11/28 03:46:46;;;;;;;30.23;19.93;;;3.80;99.90;;;;;;5025131;28;20219;-63
2021/11/28 03:49:14;;;;;;;34.07;21.03;;;3.90;99.90;;;;;;5017967;28;20661;-64
2021/11/28 03:51:41;;;;;;;35.67;20.63;;;3.90;99.90;;;;;;5025526;28;20313;-64
2021/11/28 03:54:08;;;;;;;35.13;21.07;;;3.90;99.90;;;;;;5032153;28;20659;-63
2021/11/28 03:56:35;;;;;;;36.37;21.60;;;3.80;99.90;;;;;;5020832;28;20318;-63
2021/11/28 03:59:02;;;;;;;34.03;20.40;;;3.80;99.90;;;;;;5026184;28;20672;-64
2021/11/28 04:01:29;;;;;;;34.70;20.37;;;3.90;99.90;;;;;;5013936;28;20527;-63
2021/11/28 04:03:56;;;;;;;33.27;20.60;;;3.90;99.90;;;;;;5025074;28;20294;-63
2021/11/28 04:06:24;;;;;;;31.90;18.30;;;3.90;99.90;;;;;;5015380;28;20208;-63
2021/11/28 04:08:51;;;;;;;33.33;19.33;;;3.90;99.90;;;;;;5019319;28;20644;-63
2021/11/28 04:11:18;;;;;;;35.03;19.63;;;3.80;99.90;;;;;;5033493;28;20233;-64
2021/11/28 04:13:45;;;;;;;38.23;21.60;;;3.90;99.90;;;;;;5027926;28;20262;-62
2021/11/28 04:16:12;;;;;;;43.03;23.60;;;3.80;99.90;;;;;;5014757;28;20211;-63
2021/11/28 04:18:39;;;;;;;38.90;22.47;;;3.90;99.90;;;;;;5017966;28;20297;-63
2021/11/28 04:21:06;;;;;;;36.97;22.27;;;3.80;99.90;;;;;;5022610;28;20679;-63
2021/11/28 04:23:34;;;;;;;38.77;22.00;;;3.80;99.90;;;;;;5019983;28;20291;-63
2021/11/28 04:26:01;;;;;;;41.27;22.47;;;3.80;99.90;;;;;;5026762;28;20238;-63
2021/11/28 04:28:28;;;;;;;39.50;22.67;;;3.80;99.90;;;;;;5012978;28;21079;-63
2021/11/28 04:30:55;;;;;;;36.23;22.57;;;3.70;99.90;;;;;;5018450;28;20211;-64
2021/11/28 04:33:22;;;;;;;36.40;22.00;;;3.70;99.90;;;;;;5028795;28;20290;-63
2021/11/28 04:35:49;;;;;;;40.73;22.90;;;3.60;99.90;;;;;;5018069;28;20644;-65
2021/11/28 04:38:16;;;;;;;37.80;22.57;;;3.60;99.90;;;;;;5013028;28;20387;-64
2021/11/28 04:40:44;;;;;;;40.77;22.00;;;3.60;99.90;;;;;;5026285;28;20214;-64
2021/11/28 04:43:11;;;;;;;38.37;22.47;;;3.60;99.90;;;;;;5028526;28;20321;-63
2021/11/28 04:45:38;;;;;;;38.03;22.13;;;3.60;99.90;;;;;;5033125;28;20211;-63
2021/11/28 04:48:06;;;;;;;36.33;21.87;;;3.60;99.90;;;;;;5026932;28;20218;-64
2021/11/28 04:50:33;;;;;;;40.17;23.37;;;3.60;99.90;;;;;;5020178;28;20294;-64
2021/11/28 04:53:01;;;;;;;39.00;22.57;;;3.50;99.90;;;;;;5031454;28;20309;-62
2021/11/28 04:55:28;;;;;;;40.17;23.37;;;3.50;99.90;;;;;;5012715;28;20635;-63
2021/11/28 04:57:57;;;;;;;39.80;22.57;;;3.50;99.90;;;;;;5024795;28;20331;-63
2021/11/28 05:00:26;;;;;;;36.87;21.50;;;3.40;99.90;;;;;;5013924;28;20715;-63
2021/11/28 05:02:55;;;;;;;36.97;21.93;;;3.40;99.90;;;;;;5021309;28;20279;-63
2021/11/28 05:05:22;;;;;;;39.37;22.17;;;3.30;99.90;;;;;;5026956;28;20241;-64
2021/11/28 05:07:50;;;;;;;43.13;23.30;;;3.30;99.90;;;;;;5030508;28;20203;-64
2021/11/28 05:10:17;;;;;;;36.20;21.90;;;3.20;99.90;;;;;;5016178;28;20652;-63
2021/11/28 05:12:44;;;;;;;41.23;22.20;;;3.20;99.90;;;;;;5015333;28;20227;-64
2021/11/28 05:15:13;;;;;;;35.17;22.13;;;3.20;99.90;;;;;;5025776;28;20266;-64
2021/11/28 05:17:39;;;;;;;39.03;21.53;;;3.20;99.90;;;;;;5022969;28;20298;-63
2021/11/28 05:20:08;;;;;;;40.20;22.37;;;3.20;99.90;;;;;;5018891;28;20552;-65
2021/11/28 05:22:35;;;;;;;41.80;21.73;;;3.20;99.90;;;;;;5020622;28;20199;-65
2021/11/28 05:25:03;;;;;;;36.60;21.50;;;3.20;99.90;;;;;;5020395;28;20602;-63
2021/11/28 05:27:30;;;;;;;38.37;22.07;;;3.20;99.90;;;;;;5013497;28;20290;-63
2021/11/28 05:29:57;;;;;;;39.60;22.83;;;3.20;99.90;;;;;;5024040;28;20257;-64
2021/11/28 05:32:26;;;;;;;35.80;21.80;;;3.20;99.90;;;;;;5026146;28;20284;-64
2021/11/28 05:34:53;;;;;;;44.67;22.97;;;3.10;99.90;;;;;;5012189;28;20261;-63
2021/11/28 05:37:21;;;;;;;37.13;23.67;;;3.10;99.90;;;;;;5025703;28;20644;-64
2021/11/28 05:39:48;;;;;;;41.60;23.43;;;3.10;99.90;;;;;;5025280;28;20208;-65
2021/11/28 05:42:15;;;;;;;41.43;23.37;;;3.20;99.90;;;;;;5014368;28;20295;-63
2021/11/28 05:44:42;;;;;;;40.20;22.77;;;3.10;99.90;;;;;;5025182;28;20285;-64
2021/11/28 05:47:09;;;;;;;41.20;22.40;;;3.10;99.90;;;;;;5011910;28;20239;-64
2021/11/28 05:49:37;;;;;;;41.97;22.87;;;3.10;99.90;;;;;;5028919;28;20290;-64
2021/11/28 05:52:05;;;;;;;43.67;22.17;;;3.20;99.90;;;;;;5029420;28;20310;-64
2021/11/28 05:54:32;;;;;;;37.63;21.23;;;3.10;99.90;;;;;;5030963;28;20530;-63
2021/11/28 05:56:59;;;;;;;34.53;21.80;;;3.30;99.90;;;;;;5026593;28;20315;-64
2021/11/28 05:59:27;;;;;;;36.33;21.77;;;3.20;99.90;;;;;;5021219;28;20298;-64
2021/11/28 06:01:54;;;;;;;38.50;22.80;;;3.20;99.90;;;;;;5013364;28;20272;-65
2021/11/28 06:04:21;;;;;;;34.40;21.67;;;3.20;99.90;;;;;;5019957;28;20218;-63
2021/11/28 06:06:49;;;;;;;37.97;20.97;;;3.20;99.90;;;;;;5023762;28;20298;-63
2021/11/28 06:09:16;;;;;;;36.43;21.70;;;3.20;99.90;;;;;;5025238;28;20290;-62
2021/11/28 06:11:43;;;;;;;38.97;21.83;;;3.20;99.90;;;;;;5013534;28;20261;-63
2021/11/28 06:14:10;;;;;;;41.20;23.60;;;3.20;99.90;;;;;;5031267;28;20321;-66
2021/11/28 06:16:37;;;;;;;37.73;21.83;;;3.20;99.90;;;;;;5017727;28;20298;-63
2021/11/28 06:19:04;;;;;;;33.17;20.87;;;3.10;99.90;;;;;;5027069;28;20272;-64
2021/11/28 06:21:31;;;;;;;38.80;22.50;;;3.10;99.90;;;;;;5011400;28;20245;-64
2021/11/28 06:23:59;;;;;;;37.10;22.07;;;3.10;99.90;;;;;;5030804;28;20292;-65
2021/11/28 06:26:26;;;;;;;41.30;20.50;;;3.10;99.90;;;;;;5022659;28;20690;-65
2021/11/28 06:28:53;;;;;;;38.00;21.57;;;3.10;99.90;;;;;;5014655;28;20298;-63
2021/11/28 06:31:20;;;;;;;34.97;21.17;;;3.20;99.90;;;;;;5030846;28;20298;-63
2021/11/28 06:33:47;;;;;;;34.57;20.50;;;3.00;99.90;;;;;;5013893;28;20317;-64
2021/11/28 06:36:14;;;;;;;40.17;22.67;;;3.20;99.90;;;;;;5014651;28;20748;-63
2021/11/28 06:38:41;;;;;;;35.57;20.80;;;3.20;99.90;;;;;;5010633;28;20214;-64
2021/11/28 06:41:10;;;;;;;36.10;21.73;;;3.20;99.90;;;;;;5026208;28;20234;-63
2021/11/28 06:43:37;;;;;;;36.43;22.33;;;3.20;99.90;;;;;;5010264;28;20733;-64
2021/11/28 06:46:04;;;;;;;37.90;22.20;;;3.20;99.90;;;;;;5024557;28;20306;-64
2021/11/28 06:48:31;;;;;;;34.77;20.53;;;3.20;99.90;;;;;;5019196;28;20298;-63
2021/11/28 06:50:58;;;;;;;36.63;21.57;;;3.30;99.90;;;;;;5030626;28;20290;-64
2021/11/28 06:53:25;;;;;;;38.13;21.77;;;3.30;99.90;;;;;;5027933;28;20711;-64
2021/11/28 06:55:52;;;;;;;35.87;20.47;;;3.30;99.90;;;;;;5022211;28;20826;-63
2021/11/28 06:58:21;;;;;;;36.17;21.67;;;3.30;99.90;;;;;;5028372;28;20238;-63
2021/11/28 07:00:48;;;;;;;41.20;22.20;;;3.40;99.90;;;;;;5012094;28;20211;-63
2021/11/28 07:03:15;;;;;;;36.87;22.10;;;3.40;99.90;;;;;;5023167;28;20206;-63
2021/11/28 07:05:44;;;;;;;37.90;21.43;;;3.50;99.90;;;;;;5011042;28;20219;-61
2021/11/28 07:08:11;;;;;;;38.50;23.30;;;3.50;99.90;;;;;;5019523;28;20217;-64
2021/11/28 07:10:39;;;;;;;36.87;22.30;;;3.40;99.90;;;;;;5015967;28;20572;-64
2021/11/28 07:13:07;;;;;;;38.70;23.53;;;3.50;99.90;;;;;;5020588;28;20226;-64
2021/11/28 07:15:36;;;;;;;42.03;22.33;;;3.60;99.90;;;;;;5026243;28;20223;-64
2021/11/28 07:18:03;;;;;;;35.90;21.97;;;3.60;99.90;;;;;;5010252;28;20362;-64
2021/11/28 07:20:31;;;;;;;35.83;21.30;;;3.60;99.90;;;;;;5013499;28;20660;-65
2021/11/28 07:22:58;;;;;;;35.37;21.43;;;3.60;99.90;;;;;;5019864;28;20211;-66
2021/11/28 07:25:26;;;;;;;35.20;20.50;;;3.70;99.90;;;;;;5011847;28;20214;-64
2021/11/28 07:27:53;;;;;;;33.43;19.33;;;3.70;99.90;;;;;;5031897;28;20298;-64
2021/11/28 07:30:20;;;;;;;35.83;21.50;;;3.80;99.90;;;;;;5028555;28;20227;-64
2021/11/28 07:32:48;;;;;;;32.30;19.40;;;3.80;99.90;;;;;;5011860;28;20326;-64
2021/11/28 07:35:15;;;;;;;35.10;18.93;;;3.80;99.90;;;;;;5012633;28;20303;-63
2021/11/28 07:37:42;;;;;;;31.37;19.43;;;3.80;99.90;;;;;;5022881;28;20597;-64
2021/11/28 07:40:10;;;;;;;32.33;20.43;;;3.80;99.90;;;;;;5024281;28;20286;-63
2021/11/28 07:42:37;;;;;;;33.80;19.83;;;3.90;99.90;;;;;;5020739;28;20269;-65
2021/11/28 07:45:05;;;;;;;33.87;19.77;;;4.00;99.90;;;;;;5013243;28;20295;-64
2021/11/28 07:47:33;;;;;;;34.83;21.33;;;4.00;99.90;;;;;;5011750;28;20290;-63
2021/11/28 07:50:01;;;;;;;34.80;20.30;;;4.10;99.90;;;;;;5020585;28;20618;-63
2021/11/28 07:52:28;;;;;;;42.07;24.23;;;4.30;99.90;;;;;;5015324;28;20306;-66
2021/11/28 07:54:55;;;;;;;36.53;21.83;;;4.40;99.90;;;;;;5018488;28;20206;-67
2021/11/28 07:57:22;;;;;;;35.97;21.17;;;4.40;99.90;;;;;;5015607;28;20215;-64
2021/11/28 07:59:49;;;;;;;37.03;21.43;;;4.50;99.90;;;;;;5021767;28;20294;-66
2021/11/28 08:02:18;;;;;;;37.57;22.63;;;4.70;99.90;;;;;;5024127;28;20238;-66
2021/11/28 08:04:45;;;;;;;37.70;22.57;;;4.80;99.90;;;;;;5011186;28;20219;-66
2021/11/28 08:07:14;;;;;;;35.77;21.93;;;4.90;99.90;;;;;;5016709;28;20322;-65
2021/11/28 08:09:41;;;;;;;32.43;21.00;;;5.00;99.90;;;;;;5009589;28;20220;-67
2021/11/28 08:12:08;;;;;;;34.77;21.43;;;5.00;99.90;;;;;;5018246;28;20326;-66
2021/11/28 08:14:36;;;;;;;37.63;21.27;;;5.10;99.90;;;;;;5018639;28;20686;-66
2021/11/28 08:17:03;;;;;;;35.97;21.33;;;5.20;99.90;;;;;;5017118;28;20570;-66
2021/11/28 08:19:30;;;;;;;40.63;21.27;;;5.30;99.90;;;;;;5021246;28;20243;-66
2021/11/28 08:21:58;;;;;;;35.87;21.40;;;5.40;99.90;;;;;;5022077;28;20652;-66
2021/11/28 08:24:27;;;;;;;38.80;22.60;;;5.50;99.90;;;;;;5015019;28;20729;-66
2021/11/28 08:26:54;;;;;;;34.07;22.23;;;5.60;99.90;;;;;;5015071;28;20302;-68
2021/11/28 08:29:21;;;;;;;37.23;22.00;;;5.70;99.90;;;;;;5026824;28;20285;-66
2021/11/28 08:31:48;;;;;;;36.30;21.40;;;5.70;99.90;;;;;;5020253;28;20207;-68
2021/11/28 08:34:15;;;;;;;42.17;22.17;;;5.80;99.90;;;;;;5017205;28;20731;-67
2021/11/28 08:36:42;;;;;;;36.03;21.93;;;5.90;99.90;;;;;;5020708;28;20311;-66
2021/11/28 08:39:10;;;;;;;38.80;22.20;;;6.10;99.90;;;;;;5019538;28;20271;-66
2021/11/28 08:41:38;;;;;;;38.30;23.23;;;6.50;99.90;;;;;;5026471;28;20317;-67
2021/11/28 08:44:05;;;;;;;36.30;22.60;;;6.90;99.90;;;;;;5019460;28;20250;-67
2021/11/28 08:46:36;;;;;;;36.80;21.37;;;7.40;99.90;;;;;;5021406;28;20213;-68
2021/11/28 08:49:06;;;;;;;34.43;22.17;;;7.70;99.90;;;;;;5020698;28;20202;-67
2021/11/28 08:51:34;;;;;;;31.30;19.20;;;8.10;99.90;;;;;;5026344;28;20272;-67
2021/11/28 08:54:01;;;;;;;29.03;18.70;;;8.50;99.90;;;;;;5018930;28;20223;-67
2021/11/28 08:56:30;;;;;;;32.17;21.20;;;8.90;99.90;;;;;;5012917;28;20266;-66
2021/11/28 08:59:01;;;;;;;31.40;20.17;;;9.20;99.90;;;;;;5016790;28;20657;-67
2021/11/28 09:01:28;;;;;;;29.83;18.97;;;9.60;99.90;;;;;;5029285;28;20640;-69
2021/11/28 09:03:58;;;;;;;29.57;19.20;;;9.90;99.90;;;;;;5014685;28;20618;-68
2021/11/28 09:06:27;;;;;;;32.47;19.87;;;10.30;99.90;;;;;;5016576;28;20665;-69
2021/11/28 09:08:54;;;;;;;31.67;19.50;;;10.50;99.90;;;;;;5022375;28;20211;-69
2021/11/28 09:11:21;;;;;;;33.67;19.70;;;10.40;99.90;;;;;;5022018;28;20210;-69
2021/11/28 09:13:48;;;;;;;27.70;19.03;;;10.50;99.90;;;;;;5023858;28;20921;-68
2021/11/28 09:16:17;;;;;;;32.80;20.07;;;10.60;99.90;;;;;;5021246;28;20265;-68
2021/11/28 09:18:48;;;;;;;31.07;21.17;;;11.00;99.90;;;;;;5018942;28;20237;-68
2021/11/28 09:21:16;;;;;;;31.87;20.60;;;11.70;99.90;;;;;;5016358;28;20203;-67
2021/11/28 09:26:28;;;;;;;30.63;19.37;;;13.80;98.60;;;;;;5011556;28;20277;-66
2021/11/28 09:28:55;;;;;;;29.10;19.27;;;15.40;95.90;;;;;;5010714;28;20211;-67
2021/11/28 09:31:23;;;;;;;27.57;19.43;;;16.90;90.10;;;;;;5012385;28;20210;-67
2021/11/28 09:33:50;;;;;;;30.73;21.33;;;17.80;79.00;;;;;;5030019;28;20234;-67
2021/11/28 09:36:17;;;;;;;32.77;22.10;;;18.50;73.30;;;;;;5011924;28;20683;-68
2021/11/28 09:38:44;;;;;;;31.93;22.03;;;18.90;67.20;;;;;;5013268;28;20298;-67
2021/11/28 09:41:13;;;;;;;32.23;22.00;;;19.00;64.60;;;;;;5028702;28;21061;-66
2021/11/28 09:43:42;;;;;;;32.10;21.10;;;19.60;62.90;;;;;;5029830;28;20285;-65
2021/11/28 09:46:10;;;;;;;29.63;20.98;;;20.30;60.10;;;;;;5022549;28;20222;-67
2021/11/28 09:48:38;;;;;;;26.20;19.25;;;21.10;57.50;;;;;;5012274;28;20333;-64
2021/11/28 09:51:09;;;;;;;26.02;19.13;;;22.00;54.90;;;;;;5030661;28;20248;-67
2021/11/28 09:53:38;;;;;;;25.98;19.48;;;23.00;52.70;;;;;;5012660;28;20302;-66
2021/11/28 09:56:07;;;;;;;25.77;18.70;;;23.60;50.10;;;;;;5022783;28;20692;-69
2021/11/28 09:58:35;;;;;;;25.02;19.67;;;24.00;48.70;;;;;;5019334;28;20203;-68
2021/11/28 10:01:02;;;;;;;25.13;20.02;;;24.80;47.60;;;;;;5011606;28;20298;-67
2021/11/28 10:03:29;;;;;;;26.02;20.02;;;25.60;45.80;;;;;;5027703;28;20293;-66
2021/11/28 10:05:58;;;;;;;21.73;16.80;;;26.20;43.70;;;;;;5020230;28;20273;-69
2021/11/28 10:08:26;;;;;;;19.20;15.57;;;26.40;41.80;;;;;;5011625;28;20238;-66
2021/11/28 10:11:24;;;;;;;22.38;18.33;;;26.50;41.10;;;;;;5011876;28;20215;-64
2021/11/28 10:13:53;;;;;;;22.85;16.23;;;26.40;39.00;;;;;;5016669;28;20328;-67
2021/11/28 10:16:21;;;;;;;22.92;17.95;;;25.20;38.30;;;;;;5021237;28;20287;-68
2021/11/28 10:18:47;;;;;;;23.00;18.63;;;23.60;39.80;;;;;;5013311;28;20215;-66
2021/11/28 10:21:16;;;;;;;21.13;15.98;;;22.00;40.20;;;;;;5031175;28;20298;-68
2021/11/28 10:24:04;;;;;;;26.90;18.65;;;20.20;41.90;;;;;;5014570;28;20247;-68
2021/11/28 10:26:31;;;;;;;21.83;16.00;;;18.30;44.10;;;;;;5020562;28;20215;-67
2021/11/28 10:29:07;;;;;;;17.63;13.20;;;16.80;46.30;;;;;;5029484;28;20746;-68
2021/11/28 10:31:43;;;;;;;21.60;15.20;;;15.40;48.20;;;;;;5019026;28;20294;-67
2021/11/28 10:34:18;;;;;;;21.43;15.43;;;14.30;50.30;;;;;;5014891;28;20250;-68
2021/11/28 10:36:47;;;;;;;24.00;16.67;;;13.40;52.70;;;;;;5020991;28;20210;-68
2021/11/28 10:39:18;;;;;;;23.27;15.27;;;12.80;54.50;;;;;;5026590;28;20293;-67
2021/11/28 10:41:50;;;;;;;24.20;15.60;;;12.40;55.80;;;;;;5021388;28;20253;-69
2021/11/28 10:44:19;;;;;;;24.23;16.43;;;12.00;56.70;;;;;;5016114;28;20318;-67
2021/11/28 10:46:47;;;;;;;24.97;16.23;;;11.70;58.10;;;;;;5022188;28;20211;-67
2021/11/28 10:49:15;;;;;;;24.37;15.13;;;11.50;58.90;;;;;;5012255;28;20215;-67
2021/11/28 10:51:44;;;;;;;28.20;15.57;;;11.20;60.10;;;;;;5012512;28;20727;-67
2021/11/28 10:54:27;;;;;;;23.83;16.33;;;11.00;61.00;;;;;;5018167;28;20223;-67
2021/11/28 10:57:18;;;;;;;29.17;16.73;;;11.20;63.00;;;;;;5024315;28;20249;-66
2021/11/28 10:59:55;;;;;;;24.97;15.87;;;11.50;63.30;;;;;;5020874;28;20675;-67
2021/11/28 11:02:24;;;;;;;29.37;16.80;;;11.90;63.00;;;;;;5019528;28;20293;-67
2021/11/28 11:04:53;;;;;;;24.77;16.33;;;12.40;62.30;;;;;;5010675;28;20323;-67
2021/11/28 11:07:22;;;;;;;25.70;16.77;;;12.70;60.50;;;;;;5015325;28;20301;-67
2021/11/28 11:09:52;;;;;;;27.10;16.70;;;12.50;60.10;;;;;;5011176;28;20214;-66
2021/11/28 11:12:21;;;;;;;28.90;16.57;;;12.40;61.30;;;;;;5024687;28;20612;-68
2021/11/28 11:14:49;;;;;;;22.13;15.20;;;12.40;61.50;;;;;;5017523;28;20715;-67
2021/11/28 11:17:16;;;;;;;23.50;15.53;;;12.20;61.30;;;;;;5012359;28;21027;-70
2021/11/28 11:19:47;;;;;;;39.03;18.93;;;11.90;61.70;;;;;;5021204;28;20258;-65
2021/11/28 11:22:18;;;;;;;22.90;15.57;;;11.80;63.10;;;;;;5024376;28;20203;-65
2021/11/28 11:24:56;;;;;;;25.30;16.33;;;11.50;63.20;;;;;;5020400;28;20199;-66
2021/11/28 11:27:25;;;;;;;23.60;16.07;;;11.20;64.00;;;;;;5019507;28;20621;-67
2021/11/28 11:29:54;;;;;;;25.37;15.70;;;10.90;64.40;;;;;;5015112;28;20733;-65
2021/11/28 11:32:24;;;;;;;25.97;16.30;;;10.50;65.20;;;;;;5011022;28;20300;-65
2021/11/28 11:34:57;;;;;;;26.40;16.83;;;10.10;66.50;;;;;;5012221;28;20318;-67
2021/11/28 11:37:26;;;;;;;28.87;18.40;;;9.80;69.00;;;;;;5016123;28;20648;-66
2021/11/28 11:39:57;;;;;;;26.13;15.73;;;9.50;70.20;;;;;;5012428;28;20207;-66
2021/11/28 11:42:28;;;;;;;26.13;15.63;;;9.20;71.60;;;;;;5010308;28;20574;-67
2021/11/28 11:44:56;;;;;;;29.17;17.03;;;9.10;73.30;;;;;;5010094;28;20281;-66
2021/11/28 11:47:24;;;;;;;26.67;17.10;;;9.00;74.40;;;;;;5009488;28;20208;-67
2021/11/28 11:49:52;;;;;;;27.50;16.30;;;8.90;74.70;;;;;;5010158;28;20207;-64
2021/11/28 11:52:19;;;;;;;27.57;16.63;;;8.70;76.00;;;;;;5013888;28;20258;-64
2021/11/28 11:54:49;;;;;;;26.13;16.70;;;8.60;77.00;;;;;;5027497;28;20304;-66
2021/11/28 11:57:21;;;;;;;25.83;16.13;;;8.50;78.90;;;;;;5024125;28;20630;-67
2021/11/28 12:00:02;;;;;;;25.67;15.47;;;8.50;79.40;;;;;;5030369;28;20312;-68
2021/11/28 12:02:31;;;;;;;26.33;16.77;;;8.50;80.50;;;;;;5030989;28;20222;-65
2021/11/28 12:04:59;;;;;;;26.03;17.43;;;8.50;81.30;;;;;;5028767;28;20461;-65
2021/11/28 12:07:49;;;;;;;26.83;17.20;;;8.40;81.80;;;;;;5026919;28;20261;-67
2021/11/28 12:10:38;;;;;;;26.70;17.40;;;8.30;82.70;;;;;;5028863;28;20638;-64
2021/11/28 12:13:09;;;;;;;26.03;16.90;;;8.20;83.90;;;;;;5018913;28;20238;-64
2021/11/28 12:15:38;;;;;;;28.43;17.40;;;8.10;85.40;;;;;;5024931;28;20211;-65
2021/11/28 12:18:07;;;;;;;28.00;17.10;;;8.00;87.00;;;;;;5023731;28;20294;-65
2021/11/28 12:21:05;;;;;;;24.10;16.10;;;8.00;88.90;;;;;;5026187;28;20236;-67
2021/11/28 12:23:52;;;;;;;28.90;16.37;;;7.90;90.50;;;;;;4982682;28;20662;-65
2021/11/28 12:26:50;;;;;;;27.53;16.10;;;7.80;91.60;;;;;;5020535;28;20260;-63
2021/11/28 12:29:39;;;;;;;26.87;16.90;;;7.70;92.30;;;;;;5023901;28;20682;-64
2021/11/28 12:32:26;;;;;;;31.70;16.57;;;7.80;93.10;;;;;;5027875;28;20209;-65
2021/11/28 12:34:58;;;;;;;27.57;16.10;;;7.80;93.90;;;;;;5032304;28;20214;-65
2021/11/28 12:37:28;;;;;;;23.63;15.80;;;7.70;94.50;;;;;;5027571;28;20659;-64
2021/11/28 12:39:58;;;;;;;27.93;16.97;;;7.60;95.80;;;;;;5026742;28;20825;-63
2021/11/28 12:42:28;;;;;;;27.33;16.10;;;7.60;96.70;;;;;;5024995;28;20630;-63
2021/11/28 12:45:02;;;;;;;29.63;16.70;;;7.60;97.30;;;;;;5024546;28;20207;-63
2021/11/28 12:47:31;;;;;;;28.07;17.00;;;7.60;97.90;;;;;;5025301;28;20253;-66
2021/11/28 12:50:01;;;;;;;25.43;15.90;;;7.60;97.90;;;;;;5021412;28;20245;-64